sensor_id;sensor_type;location;lat;lon;timestamp;temperature;humidity
8888;DHT22;4480;52.370;9.748;2023-07-30T00:01:33;16.50;99.90
8888;DHT22;4480;52.370;9.748;2023-07-30T00:04:00;16.50;99.90
8888;DHT22;4480;52.370;9.748;2023-07-30T00:06:27;16.50;99.90
8888;DHT22;4480;52.370;9.748;2023-07-30T00:08:54;16.50;99.90
8888;DHT22;4480;52.370;9.748;2023-07-30T00:11:21;16.60;99.90
8888;DHT22;4480;52.370;9.748;2023-07-30T00:13:49;16.60;99.90
8888;DHT22;4480;52.370;9.748;2023-07-30T00:16:16;16.60;99.90
8888;DHT22;4480;52.370;9.748;2023-07-30T00:18:42;16.60;99.90
8888;DHT22;4480;52.370;9.748;2023-07-30T00:21:09;16.60;99.90
8888;DHT22;4480;52.370;9.748;2023-07-30T00:23:36;16.60;99.90
8888;DHT22;4480;52.370;9.748;2023-07-30T00:26:03;16.60;99.90
8888;DHT22;4480;52.370;9.748;2023-07-30T00:28:29;16.50;99.90
8888;DHT22;4480;52.370;9.748;2023-07-30T00:30:57;16.50;99.90
8888;DHT22;4480;52.370;9.748;2023-07-30T00:33:24;16.50;99.90
8888;DHT22;4480;52.370;9.748;2023-07-30T00:35:51;16.50;99.90
8888;DHT22;4480;52.370;9.748;2023-07-30T00:38:18;16.50;99.90
8888;DHT22;4480;52.370;9.748;2023-07-30T00:40:45;16.50;99.90
8888;DHT22;4480;52.370;9.748;2023-07-30T00:43:12;16.50;99.90
8888;DHT22;4480;52.370;9.748;2023-07-30T00:45:42;16.50;99.90
8888;DHT22;4480;52.370;9.748;2023-07-30T00:48:11;16.50;99.90
8888;DHT22;4480;52.370;9.748;2023-07-30T00:50:40;16.60;99.90
8888;DHT22;4480;52.370;9.748;2023-07-30T00:53:09;16.60;99.90
8888;DHT22;4480;52.370;9.748;2023-07-30T00:55:37;16.60;99.90
8888;DHT22;4480;52.370;9.748;2023-07-30T00:58:04;16.70;99.90
8888;DHT22;4480;52.370;9.748;2023-07-30T01:00:31;16.80;99.90
8888;DHT22;4480;52.370;9.748;2023-07-30T01:02:59;16.80;99.90
8888;DHT22;4480;52.370;9.748;2023-07-30T01:05:27;16.90;99.90
8888;DHT22;4480;52.370;9.748;2023-07-30T01:07:54;16.90;99.90
8888;DHT22;4480;52.370;9.748;2023-07-30T01:10:21;17.00;99.90
8888;DHT22;4480;52.370;9.748;2023-07-30T01:12:50;17.00;99.90
8888;DHT22;4480;52.370;9.748;2023-07-30T01:15:18;17.00;99.90
8888;DHT22;4480;52.370;9.748;2023-07-30T01:17:45;17.00;99.90
8888;DHT22;4480;52.370;9.748;2023-07-30T01:20:12;17.00;99.90
8888;DHT22;4480;52.370;9.748;2023-07-30T01:22:40;17.00;99.90
8888;DHT22;4480;52.370;9.748;2023-07-30T01:25:07;17.00;99.90
8888;DHT22;4480;52.370;9.748;2023-07-30T01:27:38;17.00;99.90
8888;DHT22;4480;52.370;9.748;2023-07-30T01:30:16;17.10;99.90
8888;DHT22;4480;52.370;9.748;2023-07-30T01:32:45;17.10;99.90
8888;DHT22;4480;52.370;9.748;2023-07-30T01:35:15;17.10;99.90
8888;DHT22;4480;52.370;9.748;2023-07-30T01:37:44;17.10;99.90
8888;DHT22;4480;52.370;9.748;2023-07-30T01:40:11;17.10;99.90
8888;DHT22;4480;52.370;9.748;2023-07-30T01:42:39;17.10;99.90
8888;DHT22;4480;52.370;9.748;2023-07-30T01:45:06;17.00;99.90
8888;DHT22;4480;52.370;9.748;2023-07-30T01:47:33;17.00;99.90
8888;DHT22;4480;52.370;9.748;2023-07-30T01:50:00;17.00;99.90
8888;DHT22;4480;52.370;9.748;2023-07-30T01:52:27;17.00;99.90
8888;DHT22;4480;52.370;9.748;2023-07-30T01:54:55;17.00;99.90
8888;DHT22;4480;52.370;9.748;2023-07-30T01:57:24;16.90;99.90
8888;DHT22;4480;52.370;9.748;2023-07-30T01:59:50;16.90;99.90
8888;DHT22;4480;52.370;9.748;2023-07-30T02:02:17;16.90;99.90
8888;DHT22;4480;52.370;9.748;2023-07-30T02:04:44;16.80;99.90
8888;DHT22;4480;52.370;9.748;2023-07-30T02:07:11;16.80;99.90
8888;DHT22;4480;52.370;9.748;2023-07-30T02:09:37;16.70;99.90
8888;DHT22;4480;52.370;9.748;2023-07-30T02:12:07;16.70;99.90
8888;DHT22;4480;52.370;9.748;2023-07-30T02:14:34;16.70;99.90
8888;DHT22;4480;52.370;9.748;2023-07-30T02:17:01;16.70;99.90
8888;DHT22;4480;52.370;9.748;2023-07-30T02:19:27;16.70;99.90
8888;DHT22;4480;52.370;9.748;2023-07-30T02:21:54;16.60;99.90
8888;DHT22;4480;52.370;9.748;2023-07-30T02:24:21;16.60;99.90
8888;DHT22;4480;52.370;9.748;2023-07-30T02:26:48;16.60;99.90
8888;DHT22;4480;52.370;9.748;2023-07-30T02:29:16;16.50;99.90
8888;DHT22;4480;52.370;9.748;2023-07-30T02:31:43;16.50;99.90
8888;DHT22;4480;52.370;9.748;2023-07-30T02:34:09;16.50;99.90
8888;DHT22;4480;52.370;9.748;2023-07-30T02:36:36;16.50;99.90
8888;DHT22;4480;52.370;9.748;2023-07-30T02:39:03;16.40;99.90
8888;DHT22;4480;52.370;9.748;2023-07-30T02:41:30;16.40;99.90
8888;DHT22;4480;52.370;9.748;2023-07-30T02:43:56;16.30;99.90
8888;DHT22;4480;52.370;9.748;2023-07-30T02:46:25;16.30;99.90
8888;DHT22;4480;52.370;9.748;2023-07-30T02:48:51;16.20;99.90
8888;DHT22;4480;52.370;9.748;2023-07-30T02:51:18;16.20;99.90
8888;DHT22;4480;52.370;9.748;2023-07-30T02:53:45;16.20;99.90
8888;DHT22;4480;52.370;9.748;2023-07-30T02:56:12;16.10;99.90
8888;DHT22;4480;52.370;9.748;2023-07-30T02:58:38;16.10;99.90
8888;DHT22;4480;52.370;9.748;2023-07-30T03:01:06;16.10;99.90
8888;DHT22;4480;52.370;9.748;2023-07-30T03:03:34;16.10;99.90
8888;DHT22;4480;52.370;9.748;2023-07-30T03:06:01;16.10;99.90
8888;DHT22;4480;52.370;9.748;2023-07-30T03:08:28;16.10;99.90
8888;DHT22;4480;52.370;9.748;2023-07-30T03:10:57;16.10;99.90
8888;DHT22;4480;52.370;9.748;2023-07-30T03:13:24;16.10;99.90
8888;DHT22;4480;52.370;9.748;2023-07-30T03:15:51;16.10;99.90
8888;DHT22;4480;52.370;9.748;2023-07-30T03:18:18;16.00;99.90
8888;DHT22;4480;52.370;9.748;2023-07-30T03:20:46;16.00;99.90
8888;DHT22;4480;52.370;9.748;2023-07-30T03:23:13;16.00;99.90
8888;DHT22;4480;52.370;9.748;2023-07-30T03:25:40;16.00;99.90
8888;DHT22;4480;52.370;9.748;2023-07-30T03:28:06;16.00;99.90
8888;DHT22;4480;52.370;9.748;2023-07-30T03:30:33;15.90;99.90
8888;DHT22;4480;52.370;9.748;2023-07-30T03:33:00;15.90;99.90
8888;DHT22;4480;52.370;9.748;2023-07-30T03:35:27;15.90;99.90
8888;DHT22;4480;52.370;9.748;2023-07-30T03:37:55;15.90;99.90
8888;DHT22;4480;52.370;9.748;2023-07-30T03:40:21;15.90;99.90
8888;DHT22;4480;52.370;9.748;2023-07-30T03:42:49;15.90;99.90
8888;DHT22;4480;52.370;9.748;2023-07-30T03:45:16;15.90;99.90
8888;DHT22;4480;52.370;9.748;2023-07-30T03:47:43;15.90;99.90
8888;DHT22;4480;52.370;9.748;2023-07-30T03:50:10;15.80;99.90
8888;DHT22;4480;52.370;9.748;2023-07-30T03:52:36;15.80;99.90
8888;DHT22;4480;52.370;9.748;2023-07-30T03:55:05;15.80;99.90
8888;DHT22;4480;52.370;9.748;2023-07-30T03:57:32;15.80;99.90
8888;DHT22;4480;52.370;9.748;2023-07-30T03:59:59;15.80;99.90
8888;DHT22;4480;52.370;9.748;2023-07-30T04:02:26;15.80;99.90
8888;DHT22;4480;52.370;9.748;2023-07-30T04:04:53;15.80;99.90
8888;DHT22;4480;52.370;9.748;2023-07-30T04:07:19;15.80;99.90
8888;DHT22;4480;52.370;9.748;2023-07-30T04:12:00;15.90;99.90
8888;DHT22;4480;52.370;9.748;2023-07-30T04:14:26;15.90;99.90
8888;DHT22;4480;52.370;9.748;2023-07-30T04:16:53;16.00;99.90
8888;DHT22;4480;52.370;9.748;2023-07-30T04:19:20;16.10;99.90
8888;DHT22;4480;52.370;9.748;2023-07-30T04:21:47;16.40;99.90
8888;DHT22;4480;52.370;9.748;2023-07-30T04:24:14;16.70;99.90
8888;DHT22;4480;52.370;9.748;2023-07-30T04:26:40;17.00;99.90
8888;DHT22;4480;52.370;9.748;2023-07-30T04:29:08;17.20;99.90
8888;DHT22;4480;52.370;9.748;2023-07-30T04:31:35;17.50;99.90
8888;DHT22;4480;52.370;9.748;2023-07-30T04:34:02;17.80;99.90
8888;DHT22;4480;52.370;9.748;2023-07-30T04:36:29;18.00;99.90
8888;DHT22;4480;52.370;9.748;2023-07-30T04:38:56;18.20;99.90
8888;DHT22;4480;52.370;9.748;2023-07-30T04:41:23;18.40;99.90
8888;DHT22;4480;52.370;9.748;2023-07-30T04:43:49;18.60;99.90
8888;DHT22;4480;52.370;9.748;2023-07-30T04:46:17;18.70;99.90
8888;DHT22;4480;52.370;9.748;2023-07-30T04:48:44;18.70;99.90
8888;DHT22;4480;52.370;9.748;2023-07-30T04:51:11;18.80;99.90
8888;DHT22;4480;52.370;9.748;2023-07-30T04:53:38;18.90;99.90
8888;DHT22;4480;52.370;9.748;2023-07-30T04:56:05;19.10;99.90
8888;DHT22;4480;52.370;9.748;2023-07-30T04:58:32;19.30;99.90
8888;DHT22;4480;52.370;9.748;2023-07-30T05:00:58;19.40;99.90
8888;DHT22;4480;52.370;9.748;2023-07-30T05:03:26;19.60;99.90
8888;DHT22;4480;52.370;9.748;2023-07-30T05:05:53;19.70;99.90
8888;DHT22;4480;52.370;9.748;2023-07-30T05:08:20;19.80;99.90
8888;DHT22;4480;52.370;9.748;2023-07-30T05:10:47;19.90;99.90
8888;DHT22;4480;52.370;9.748;2023-07-30T05:13:14;20.00;99.90
8888;DHT22;4480;52.370;9.748;2023-07-30T05:15:40;20.00;99.90
8888;DHT22;4480;52.370;9.748;2023-07-30T05:18:07;19.90;99.90
8888;DHT22;4480;52.370;9.748;2023-07-30T05:20:35;19.90;99.90
8888;DHT22;4480;52.370;9.748;2023-07-30T05:23:02;20.00;99.90
8888;DHT22;4480;52.370;9.748;2023-07-30T05:25:29;20.00;99.90
8888;DHT22;4480;52.370;9.748;2023-07-30T05:27:56;19.90;99.90
8888;DHT22;4480;52.370;9.748;2023-07-30T05:30:23;19.80;99.90
8888;DHT22;4480;52.370;9.748;2023-07-30T05:32:49;19.60;99.90
8888;DHT22;4480;52.370;9.748;2023-07-30T05:35:16;19.60;99.90
8888;DHT22;4480;52.370;9.748;2023-07-30T05:37:45;19.40;99.90
8888;DHT22;4480;52.370;9.748;2023-07-30T05:40:12;19.10;99.90
8888;DHT22;4480;52.370;9.748;2023-07-30T05:42:39;19.00;99.90
8888;DHT22;4480;52.370;9.748;2023-07-30T05:45:07;19.00;99.90
8888;DHT22;4480;52.370;9.748;2023-07-30T05:47:34;19.20;99.90
8888;DHT22;4480;52.370;9.748;2023-07-30T05:50:02;19.40;99.90
8888;DHT22;4480;52.370;9.748;2023-07-30T05:52:29;19.60;99.90
8888;DHT22;4480;52.370;9.748;2023-07-30T05:54:57;19.70;99.90
8888;DHT22;4480;52.370;9.748;2023-07-30T05:57:24;19.90;99.90
8888;DHT22;4480;52.370;9.748;2023-07-30T05:59:51;19.90;99.90
8888;DHT22;4480;52.370;9.748;2023-07-30T06:02:18;20.00;99.90
8888;DHT22;4480;52.370;9.748;2023-07-30T06:04:45;20.00;99.90
8888;DHT22;4480;52.370;9.748;2023-07-30T06:07:11;20.10;99.90
8888;DHT22;4480;52.370;9.748;2023-07-30T06:09:38;20.20;99.90
8888;DHT22;4480;52.370;9.748;2023-07-30T06:12:07;20.10;99.90
8888;DHT22;4480;52.370;9.748;2023-07-30T06:14:34;20.00;99.90
8888;DHT22;4480;52.370;9.748;2023-07-30T06:17:00;20.10;99.90
8888;DHT22;4480;52.370;9.748;2023-07-30T06:19:27;20.10;99.90
8888;DHT22;4480;52.370;9.748;2023-07-30T06:21:54;20.10;99.90
8888;DHT22;4480;52.370;9.748;2023-07-30T06:24:21;20.00;99.90
8888;DHT22;4480;52.370;9.748;2023-07-30T06:26:48;19.90;99.50
8888;DHT22;4480;52.370;9.748;2023-07-30T06:29:16;19.80;99.50
8888;DHT22;4480;52.370;9.748;2023-07-30T06:31:43;19.70;99.60
8888;DHT22;4480;52.370;9.748;2023-07-30T06:34:10;19.80;99.50
8888;DHT22;4480;52.370;9.748;2023-07-30T06:36:37;19.80;99.20
8888;DHT22;4480;52.370;9.748;2023-07-30T06:39:03;19.80;98.70
8888;DHT22;4480;52.370;9.748;2023-07-30T06:41:30;19.80;98.20
8888;DHT22;4480;52.370;9.748;2023-07-30T06:43:57;19.80;97.90
8888;DHT22;4480;52.370;9.748;2023-07-30T06:46:25;19.80;97.50
8888;DHT22;4480;52.370;9.748;2023-07-30T06:48:51;19.80;97.20
8888;DHT22;4480;52.370;9.748;2023-07-30T06:51:19;19.80;96.90
8888;DHT22;4480;52.370;9.748;2023-07-30T06:53:46;19.90;96.40
8888;DHT22;4480;52.370;9.748;2023-07-30T06:56:13;19.90;95.60
8888;DHT22;4480;52.370;9.748;2023-07-30T06:58:39;19.90;95.00
8888;DHT22;4480;52.370;9.748;2023-07-30T07:01:06;20.00;94.10
8888;DHT22;4480;52.370;9.748;2023-07-30T07:03:34;20.00;93.30
8888;DHT22;4480;52.370;9.748;2023-07-30T07:06:01;20.10;92.70
8888;DHT22;4480;52.370;9.748;2023-07-30T07:08:28;20.20;91.80
8888;DHT22;4480;52.370;9.748;2023-07-30T07:10:55;20.30;90.90
8888;DHT22;4480;52.370;9.748;2023-07-30T07:13:21;20.30;90.40
8888;DHT22;4480;52.370;9.748;2023-07-30T07:15:48;20.40;89.40
8888;DHT22;4480;52.370;9.748;2023-07-30T07:18:15;20.50;88.00
8888;DHT22;4480;52.370;9.748;2023-07-30T07:20:43;20.60;86.60
8888;DHT22;4480;52.370;9.748;2023-07-30T07:23:10;20.60;84.20
8888;DHT22;4480;52.370;9.748;2023-07-30T07:25:37;20.50;83.20
8888;DHT22;4480;52.370;9.748;2023-07-30T07:28:04;20.40;83.10
8888;DHT22;4480;52.370;9.748;2023-07-30T07:30:34;20.30;82.80
8888;DHT22;4480;52.370;9.748;2023-07-30T07:33:01;20.30;83.30
8888;DHT22;4480;52.370;9.748;2023-07-30T07:35:28;20.20;83.50
8888;DHT22;4480;52.370;9.748;2023-07-30T07:37:57;20.20;83.90
8888;DHT22;4480;52.370;9.748;2023-07-30T07:40:24;20.20;84.20
8888;DHT22;4480;52.370;9.748;2023-07-30T07:42:50;20.30;84.40
8888;DHT22;4480;52.370;9.748;2023-07-30T07:45:17;20.30;84.00
8888;DHT22;4480;52.370;9.748;2023-07-30T07:47:44;20.40;83.50
8888;DHT22;4480;52.370;9.748;2023-07-30T07:50:11;20.50;82.80
8888;DHT22;4480;52.370;9.748;2023-07-30T07:52:37;20.70;81.70
8888;DHT22;4480;52.370;9.748;2023-07-30T07:55:06;20.80;80.90
8888;DHT22;4480;52.370;9.748;2023-07-30T07:57:33;20.90;79.80
8888;DHT22;4480;52.370;9.748;2023-07-30T08:00:00;21.00;78.60
8888;DHT22;4480;52.370;9.748;2023-07-30T08:02:30;21.10;77.40
8888;DHT22;4480;52.370;9.748;2023-07-30T08:04:57;21.20;76.60
8888;DHT22;4480;52.370;9.748;2023-07-30T08:07:24;21.30;75.90
8888;DHT22;4480;52.370;9.748;2023-07-30T08:09:51;21.50;75.10
8888;DHT22;4480;52.370;9.748;2023-07-30T08:12:19;21.50;73.90
8888;DHT22;4480;52.370;9.748;2023-07-30T08:14:46;21.60;73.50
8888;DHT22;4480;52.370;9.748;2023-07-30T08:17:13;21.60;72.40
8888;DHT22;4480;52.370;9.748;2023-07-30T08:19:40;21.70;72.40
8888;DHT22;4480;52.370;9.748;2023-07-30T08:22:07;21.90;72.00
8888;DHT22;4480;52.370;9.748;2023-07-30T08:24:33;22.10;71.70
8888;DHT22;4480;52.370;9.748;2023-07-30T08:27:00;22.30;70.30
8888;DHT22;4480;52.370;9.748;2023-07-30T08:29:28;22.40;69.50
8888;DHT22;4480;52.370;9.748;2023-07-30T08:31:55;22.50;69.00
8888;DHT22;4480;52.370;9.748;2023-07-30T08:34:22;22.50;68.50
8888;DHT22;4480;52.370;9.748;2023-07-30T08:36:49;22.50;67.90
8888;DHT22;4480;52.370;9.748;2023-07-30T08:39:15;22.50;67.50
8888;DHT22;4480;52.370;9.748;2023-07-30T08:41:42;22.50;67.80
8888;DHT22;4480;52.370;9.748;2023-07-30T08:44:09;22.50;67.50
8888;DHT22;4480;52.370;9.748;2023-07-30T08:46:37;22.70;67.20
8888;DHT22;4480;52.370;9.748;2023-07-30T08:49:04;22.70;66.80
8888;DHT22;4480;52.370;9.748;2023-07-30T08:51:31;22.80;65.90
8888;DHT22;4480;52.370;9.748;2023-07-30T08:54:00;22.80;65.70
8888;DHT22;4480;52.370;9.748;2023-07-30T08:56:27;22.80;65.40
8888;DHT22;4480;52.370;9.748;2023-07-30T08:58:56;22.80;65.10
8888;DHT22;4480;52.370;9.748;2023-07-30T09:01:27;23.00;65.00
8888;DHT22;4480;52.370;9.748;2023-07-30T09:03:58;23.10;64.60
8888;DHT22;4480;52.370;9.748;2023-07-30T09:06:26;23.30;64.10
8888;DHT22;4480;52.370;9.748;2023-07-30T09:08:53;23.50;63.30
8888;DHT22;4480;52.370;9.748;2023-07-30T09:11:19;23.40;62.10
8888;DHT22;4480;52.370;9.748;2023-07-30T09:13:46;23.30;62.80
8888;DHT22;4480;52.370;9.748;2023-07-30T09:16:15;23.30;63.30
8888;DHT22;4480;52.370;9.748;2023-07-30T09:18:43;23.40;63.20
8888;DHT22;4480;52.370;9.748;2023-07-30T09:21:11;23.60;63.20
8888;DHT22;4480;52.370;9.748;2023-07-30T09:23:42;23.70;63.00
8888;DHT22;4480;52.370;9.748;2023-07-30T09:26:09;23.70;62.60
8888;DHT22;4480;52.370;9.748;2023-07-30T09:28:36;23.80;62.20
8888;DHT22;4480;52.370;9.748;2023-07-30T09:31:05;23.90;61.70
8888;DHT22;4480;52.370;9.748;2023-07-30T09:33:32;23.90;61.20
8888;DHT22;4480;52.370;9.748;2023-07-30T09:36:01;23.90;60.80
8888;DHT22;4480;52.370;9.748;2023-07-30T09:38:30;23.80;61.00
8888;DHT22;4480;52.370;9.748;2023-07-30T09:41:00;23.80;61.10
8888;DHT22;4480;52.370;9.748;2023-07-30T09:43:29;24.00;60.90
8888;DHT22;4480;52.370;9.748;2023-07-30T09:46:01;24.20;60.50
8888;DHT22;4480;52.370;9.748;2023-07-30T09:48:29;24.20;59.80
8888;DHT22;4480;52.370;9.748;2023-07-30T09:50:57;24.20;59.70
8888;DHT22;4480;52.370;9.748;2023-07-30T09:53:25;24.20;59.40
8888;DHT22;4480;52.370;9.748;2023-07-30T09:55:56;24.20;59.50
8888;DHT22;4480;52.370;9.748;2023-07-30T09:58:22;24.30;59.40
8888;DHT22;4480;52.370;9.748;2023-07-30T10:00:50;24.30;59.30
8888;DHT22;4480;52.370;9.748;2023-07-30T10:03:24;24.50;59.10
8888;DHT22;4480;52.370;9.748;2023-07-30T10:05:53;24.50;58.70
8888;DHT22;4480;52.370;9.748;2023-07-30T10:08:24;24.50;58.50
8888;DHT22;4480;52.370;9.748;2023-07-30T10:10:53;24.40;58.20
8888;DHT22;4480;52.370;9.748;2023-07-30T10:13:22;24.20;58.60
8888;DHT22;4480;52.370;9.748;2023-07-30T10:15:49;24.10;59.20
8888;DHT22;4480;52.370;9.748;2023-07-30T10:18:16;23.90;59.70
8888;DHT22;4480;52.370;9.748;2023-07-30T10:20:52;23.80;60.10
8888;DHT22;4480;52.370;9.748;2023-07-30T10:23:19;23.50;60.10
8888;DHT22;4480;52.370;9.748;2023-07-30T10:25:48;23.30;61.00
8888;DHT22;4480;52.370;9.748;2023-07-30T10:28:31;23.20;61.50
8888;DHT22;4480;52.370;9.748;2023-07-30T10:31:00;23.20;61.90
8888;DHT22;4480;52.370;9.748;2023-07-30T10:33:45;23.00;62.10
8888;DHT22;4480;52.370;9.748;2023-07-30T10:36:12;23.10;62.50
8888;DHT22;4480;52.370;9.748;2023-07-30T10:38:39;23.00;62.50
8888;DHT22;4480;52.370;9.748;2023-07-30T10:41:08;22.90;62.50
8888;DHT22;4480;52.370;9.748;2023-07-30T10:43:39;22.60;62.90
8888;DHT22;4480;52.370;9.748;2023-07-30T10:46:06;22.50;63.90
8888;DHT22;4480;52.370;9.748;2023-07-30T10:48:34;22.60;64.10
8888;DHT22;4480;52.370;9.748;2023-07-30T10:51:03;22.70;63.60
8888;DHT22;4480;52.370;9.748;2023-07-30T10:53:31;22.90;63.40
8888;DHT22;4480;52.370;9.748;2023-07-30T10:55:59;22.90;63.00
8888;DHT22;4480;52.370;9.748;2023-07-30T10:58:28;22.90;63.50
8888;DHT22;4480;52.370;9.748;2023-07-30T11:00:56;23.00;63.70
8888;DHT22;4480;52.370;9.748;2023-07-30T11:03:25;23.00;63.40
8888;DHT22;4480;52.370;9.748;2023-07-30T11:05:53;22.80;63.80
8888;DHT22;4480;52.370;9.748;2023-07-30T11:08:32;22.60;64.70
8888;DHT22;4480;52.370;9.748;2023-07-30T11:10:59;22.30;65.40
8888;DHT22;4480;52.370;9.748;2023-07-30T11:13:26;22.20;66.30
8888;DHT22;4480;52.370;9.748;2023-07-30T11:15:53;22.00;66.90
8888;DHT22;4480;52.370;9.748;2023-07-30T11:18:21;22.00;67.60
8888;DHT22;4480;52.370;9.748;2023-07-30T11:20:50;22.20;67.80
8888;DHT22;4480;52.370;9.748;2023-07-30T11:23:19;22.40;67.50
8888;DHT22;4480;52.370;9.748;2023-07-30T11:25:47;22.60;67.10
8888;DHT22;4480;52.370;9.748;2023-07-30T11:28:26;22.70;66.60
8888;DHT22;4480;52.370;9.748;2023-07-30T11:30:53;22.70;66.40
8888;DHT22;4480;52.370;9.748;2023-07-30T11:33:21;22.80;66.40
8888;DHT22;4480;52.370;9.748;2023-07-30T11:35:48;22.90;66.00
8888;DHT22;4480;52.370;9.748;2023-07-30T11:38:15;23.10;65.50
8888;DHT22;4480;52.370;9.748;2023-07-30T11:40:52;23.20;65.00
8888;DHT22;4480;52.370;9.748;2023-07-30T11:43:20;23.20;64.50
8888;DHT22;4480;52.370;9.748;2023-07-30T11:45:47;23.10;64.30
8888;DHT22;4480;52.370;9.748;2023-07-30T11:48:14;23.00;64.50
8888;DHT22;4480;52.370;9.748;2023-07-30T11:50:50;23.00;64.50
8888;DHT22;4480;52.370;9.748;2023-07-30T11:53:18;23.00;64.10
8888;DHT22;4480;52.370;9.748;2023-07-30T11:55:45;23.10;63.80
8888;DHT22;4480;52.370;9.748;2023-07-30T11:58:13;23.10;63.50
8888;DHT22;4480;52.370;9.748;2023-07-30T12:00:40;23.10;63.10
8888;DHT22;4480;52.370;9.748;2023-07-30T12:03:11;23.20;63.20
8888;DHT22;4480;52.370;9.748;2023-07-30T12:05:38;23.70;62.60
8888;DHT22;4480;52.370;9.748;2023-07-30T12:08:16;24.10;60.50
8888;DHT22;4480;52.370;9.748;2023-07-30T12:10:46;24.30;60.00
8888;DHT22;4480;52.370;9.748;2023-07-30T12:13:15;24.50;59.50
8888;DHT22;4480;52.370;9.748;2023-07-30T12:15:44;24.70;58.80
8888;DHT22;4480;52.370;9.748;2023-07-30T12:18:10;24.80;58.20
8888;DHT22;4480;52.370;9.748;2023-07-30T12:20:37;24.80;58.10
8888;DHT22;4480;52.370;9.748;2023-07-30T12:23:04;24.70;57.90
8888;DHT22;4480;52.370;9.748;2023-07-30T12:25:33;24.70;57.50
8888;DHT22;4480;52.370;9.748;2023-07-30T12:28:00;25.00;57.00
8888;DHT22;4480;52.370;9.748;2023-07-30T12:30:27;25.10;55.90
8888;DHT22;4480;52.370;9.748;2023-07-30T12:32:54;24.70;55.90
8888;DHT22;4480;52.370;9.748;2023-07-30T12:35:21;24.30;56.50
8888;DHT22;4480;52.370;9.748;2023-07-30T12:37:47;24.00;57.20
8888;DHT22;4480;52.370;9.748;2023-07-30T12:40:14;23.80;57.70
8888;DHT22;4480;52.370;9.748;2023-07-30T12:42:42;23.90;58.00
8888;DHT22;4480;52.370;9.748;2023-07-30T12:45:10;24.00;57.40
8888;DHT22;4480;52.370;9.748;2023-07-30T12:47:36;24.30;57.30
8888;DHT22;4480;52.370;9.748;2023-07-30T12:50:04;24.60;56.50
8888;DHT22;4480;52.370;9.748;2023-07-30T12:52:32;24.90;55.70
8888;DHT22;4480;52.370;9.748;2023-07-30T12:55:00;24.70;54.60
8888;DHT22;4480;52.370;9.748;2023-07-30T12:57:27;24.30;54.70
8888;DHT22;4480;52.370;9.748;2023-07-30T12:59:55;24.10;55.30
8888;DHT22;4480;52.370;9.748;2023-07-30T13:02:22;24.00;55.50
8888;DHT22;4480;52.370;9.748;2023-07-30T13:04:48;24.00;55.50
8888;DHT22;4480;52.370;9.748;2023-07-30T13:07:15;24.00;55.30
8888;DHT22;4480;52.370;9.748;2023-07-30T13:09:42;24.00;55.30
8888;DHT22;4480;52.370;9.748;2023-07-30T13:12:09;24.10;55.70
8888;DHT22;4480;52.370;9.748;2023-07-30T13:14:36;24.20;54.90
8888;DHT22;4480;52.370;9.748;2023-07-30T13:17:04;24.20;54.90
8888;DHT22;4480;52.370;9.748;2023-07-30T13:19:31;24.20;55.00
8888;DHT22;4480;52.370;9.748;2023-07-30T13:21:58;24.20;54.60
8888;DHT22;4480;52.370;9.748;2023-07-30T13:24:25;24.20;54.00
8888;DHT22;4480;52.370;9.748;2023-07-30T13:26:55;24.20;53.90
8888;DHT22;4480;52.370;9.748;2023-07-30T13:29:22;24.20;53.90
8888;DHT22;4480;52.370;9.748;2023-07-30T13:31:48;24.20;53.80
8888;DHT22;4480;52.370;9.748;2023-07-30T13:34:16;24.30;53.50
8888;DHT22;4480;52.370;9.748;2023-07-30T13:36:43;24.30;53.00
8888;DHT22;4480;52.370;9.748;2023-07-30T13:39:10;24.30;52.80
8888;DHT22;4480;52.370;9.748;2023-07-30T13:41:37;24.30;52.80
8888;DHT22;4480;52.370;9.748;2023-07-30T13:44:03;24.30;52.90
8888;DHT22;4480;52.370;9.748;2023-07-30T13:46:30;24.50;53.10
8888;DHT22;4480;52.370;9.748;2023-07-30T13:48:57;24.70;52.50
8888;DHT22;4480;52.370;9.748;2023-07-30T13:51:25;24.90;52.20
8888;DHT22;4480;52.370;9.748;2023-07-30T13:53:57;24.90;51.90
8888;DHT22;4480;52.370;9.748;2023-07-30T13:56:24;24.90;51.30
8888;DHT22;4480;52.370;9.748;2023-07-30T13:58:51;24.80;51.30
8888;DHT22;4480;52.370;9.748;2023-07-30T14:01:18;24.60;51.00
8888;DHT22;4480;52.370;9.748;2023-07-30T14:03:45;24.40;51.20
8888;DHT22;4480;52.370;9.748;2023-07-30T14:06:12;24.50;51.90
8888;DHT22;4480;52.370;9.748;2023-07-30T14:08:40;24.60;51.30
8888;DHT22;4480;52.370;9.748;2023-07-30T14:11:07;24.60;51.20
8888;DHT22;4480;52.370;9.748;2023-07-30T14:13:33;24.60;50.50
8888;DHT22;4480;52.370;9.748;2023-07-30T14:16:00;24.60;50.90
8888;DHT22;4480;52.370;9.748;2023-07-30T14:18:27;24.60;51.00
8888;DHT22;4480;52.370;9.748;2023-07-30T14:20:54;24.70;51.00
8888;DHT22;4480;52.370;9.748;2023-07-30T14:23:20;24.70;50.30
8888;DHT22;4480;52.370;9.748;2023-07-30T14:25:49;24.50;50.40
8888;DHT22;4480;52.370;9.748;2023-07-30T14:28:16;24.40;50.20
8888;DHT22;4480;52.370;9.748;2023-07-30T14:30:42;24.20;50.10
8888;DHT22;4480;52.370;9.748;2023-07-30T14:33:10;24.10;50.50
8888;DHT22;4480;52.370;9.748;2023-07-30T14:35:37;24.10;50.70
8888;DHT22;4480;52.370;9.748;2023-07-30T14:38:04;24.20;50.70
8888;DHT22;4480;52.370;9.748;2023-07-30T14:40:31;24.40;50.50
8888;DHT22;4480;52.370;9.748;2023-07-30T14:42:59;24.50;50.10
8888;DHT22;4480;52.370;9.748;2023-07-30T14:45:26;24.60;49.70
8888;DHT22;4480;52.370;9.748;2023-07-30T14:47:52;24.40;49.80
8888;DHT22;4480;52.370;9.748;2023-07-30T14:50:19;24.40;50.20
8888;DHT22;4480;52.370;9.748;2023-07-30T14:52:46;24.40;50.40
8888;DHT22;4480;52.370;9.748;2023-07-30T14:55:13;24.50;50.60
8888;DHT22;4480;52.370;9.748;2023-07-30T14:57:40;24.40;50.70
8888;DHT22;4480;52.370;9.748;2023-07-30T15:00:10;24.20;51.00
8888;DHT22;4480;52.370;9.748;2023-07-30T15:02:39;24.00;51.50
8888;DHT22;4480;52.370;9.748;2023-07-30T15:05:07;23.70;52.00
8888;DHT22;4480;52.370;9.748;2023-07-30T15:07:34;23.50;52.30
8888;DHT22;4480;52.370;9.748;2023-07-30T15:10:01;23.40;52.50
8888;DHT22;4480;52.370;9.748;2023-07-30T15:12:28;23.20;52.70
8888;DHT22;4480;52.370;9.748;2023-07-30T15:14:54;23.20;53.00
8888;DHT22;4480;52.370;9.748;2023-07-30T15:17:23;23.20;53.20
8888;DHT22;4480;52.370;9.748;2023-07-30T15:19:49;23.10;53.10
8888;DHT22;4480;52.370;9.748;2023-07-30T15:22:18;23.20;53.30
8888;DHT22;4480;52.370;9.748;2023-07-30T15:24:44;23.20;53.30
8888;DHT22;4480;52.370;9.748;2023-07-30T15:27:11;23.10;53.20
8888;DHT22;4480;52.370;9.748;2023-07-30T15:29:38;23.00;53.20
8888;DHT22;4480;52.370;9.748;2023-07-30T15:32:05;23.00;53.40
8888;DHT22;4480;52.370;9.748;2023-07-30T15:34:33;23.00;53.30
8888;DHT22;4480;52.370;9.748;2023-07-30T15:37:00;22.90;53.50
8888;DHT22;4480;52.370;9.748;2023-07-30T15:39:28;23.00;53.30
8888;DHT22;4480;52.370;9.748;2023-07-30T15:41:55;23.20;53.20
8888;DHT22;4480;52.370;9.748;2023-07-30T15:44:22;23.30;53.10
8888;DHT22;4480;52.370;9.748;2023-07-30T15:46:49;23.60;52.50
8888;DHT22;4480;52.370;9.748;2023-07-30T15:49:15;23.50;51.50
8888;DHT22;4480;52.370;9.748;2023-07-30T15:51:44;23.50;51.80
8888;DHT22;4480;52.370;9.748;2023-07-30T15:54:12;23.50;52.00
8888;DHT22;4480;52.370;9.748;2023-07-30T15:56:39;23.50;52.20
8888;DHT22;4480;52.370;9.748;2023-07-30T15:59:06;23.40;52.30
8888;DHT22;4480;52.370;9.748;2023-07-30T16:01:34;23.30;52.20
8888;DHT22;4480;52.370;9.748;2023-07-30T16:04:01;23.10;52.60
8888;DHT22;4480;52.370;9.748;2023-07-30T16:06:28;23.00;52.90